Broadalbin, New York
Current Conditions -  °F | °C
As of 5:55 AM on Friday 28 Nov 2014 (Local Time) from KNY0 Reporting Station
Overcast Overcast  
Wind Chill: 15°   Ceiling: 3300
Heat Index: 24°   Visibility: 10mi
Dew Point: 20°   Wind: 8mph
Humidity: 87%   Direction: 270°W
Pressure: 30.06"   Gusts: NA
Location:  43.06°N, 74.2°W
Report Text: KNY0 281055Z AUTO 27007KT 10SM SCT018 SCT023 OVC033 M05/M06 A3006 RMK AO2 T10461065
Loading
Personal Weather Stations






























Interactive Weather Map New forecast layout! Learn more

10-Day Weather Forecast

Advertisements
Track Severe Weather on mobile